sensor_id;sensor_type;location;lat;lon;timestamp;P1;durP1;ratioP1;P2;durP2;ratioP2
46731;SDS011;32477;51.474;5.696;2023-09-12T00:00:55;54.00;;;27.60;;
46731;SDS011;32477;51.474;5.696;2023-09-12T00:03:22;52.38;;;27.92;;
46731;SDS011;32477;51.474;5.696;2023-09-12T00:05:55;52.75;;;26.70;;
46731;SDS011;32477;51.474;5.696;2023-09-12T00:08:22;54.17;;;28.70;;
46731;SDS011;32477;51.474;5.696;2023-09-12T00:10:58;51.65;;;28.80;;
46731;SDS011;32477;51.474;5.696;2023-09-12T00:13:27;58.88;;;27.92;;
46731;SDS011;32477;51.474;5.696;2023-09-12T00:15:53;49.58;;;26.98;;
46731;SDS011;32477;51.474;5.696;2023-09-12T00:18:19;56.85;;;29.52;;
46731;SDS011;32477;51.474;5.696;2023-09-12T00:20:44;59.13;;;31.42;;
46731;SDS011;32477;51.474;5.696;2023-09-12T00:23:10;58.30;;;29.95;;
46731;SDS011;32477;51.474;5.696;2023-09-12T00:25:35;58.85;;;28.55;;
46731;SDS011;32477;51.474;5.696;2023-09-12T00:28:01;52.00;;;26.33;;
46731;SDS011;32477;51.474;5.696;2023-09-12T00:30:27;52.90;;;28.55;;
46731;SDS011;32477;51.474;5.696;2023-09-12T00:32:52;54.95;;;26.65;;
46731;SDS011;32477;51.474;5.696;2023-09-12T00:35:18;53.65;;;26.83;;
46731;SDS011;32477;51.474;5.696;2023-09-12T00:37:43;51.80;;;27.90;;
46731;SDS011;32477;51.474;5.696;2023-09-12T00:40:09;56.15;;;26.45;;
46731;SDS011;32477;51.474;5.696;2023-09-12T00:42:35;51.75;;;26.60;;
46731;SDS011;32477;51.474;5.696;2023-09-12T00:45:00;51.90;;;27.05;;
46731;SDS011;32477;51.474;5.696;2023-09-12T00:47:27;52.58;;;29.02;;
46731;SDS011;32477;51.474;5.696;2023-09-12T00:49:53;52.50;;;27.88;;
46731;SDS011;32477;51.474;5.696;2023-09-12T00:52:21;53.90;;;29.00;;
46731;SDS011;32477;51.474;5.696;2023-09-12T00:54:51;59.95;;;28.30;;
46731;SDS011;32477;51.474;5.696;2023-09-12T00:57:18;56.72;;;28.85;;
46731;SDS011;32477;51.474;5.696;2023-09-12T00:59:45;59.22;;;28.63;;
46731;SDS011;32477;51.474;5.696;2023-09-12T01:02:11;57.22;;;27.50;;
46731;SDS011;32477;51.474;5.696;2023-09-12T01:04:36;51.58;;;28.52;;
46731;SDS011;32477;51.474;5.696;2023-09-12T01:07:03;55.90;;;27.23;;
46731;SDS011;32477;51.474;5.696;2023-09-12T01:09:29;52.25;;;28.02;;
46731;SDS011;32477;51.474;5.696;2023-09-12T01:11:56;59.13;;;29.75;;
46731;SDS011;32477;51.474;5.696;2023-09-12T01:14:22;58.35;;;28.83;;
46731;SDS011;32477;51.474;5.696;2023-09-12T01:16:47;63.95;;;29.70;;
46731;SDS011;32477;51.474;5.696;2023-09-12T01:19:13;61.72;;;29.33;;
46731;SDS011;32477;51.474;5.696;2023-09-12T01:21:45;60.78;;;29.02;;
46731;SDS011;32477;51.474;5.696;2023-09-12T01:30:06;61.70;;;27.15;;
46731;SDS011;32477;51.474;5.696;2023-09-12T01:32:33;74.57;;;30.75;;
46731;SDS011;32477;51.474;5.696;2023-09-12T01:35:00;69.47;;;29.90;;
46731;SDS011;32477;51.474;5.696;2023-09-12T01:37:29;67.55;;;31.38;;
46731;SDS011;32477;51.474;5.696;2023-09-12T01:39:55;77.80;;;30.55;;
46731;SDS011;32477;51.474;5.696;2023-09-12T01:42:21;64.82;;;31.52;;
46731;SDS011;32477;51.474;5.696;2023-09-12T01:44:53;68.30;;;29.27;;
46731;SDS011;32477;51.474;5.696;2023-09-12T01:47:20;68.63;;;29.45;;
46731;SDS011;32477;51.474;5.696;2023-09-12T01:49:47;64.80;;;30.27;;
46731;SDS011;32477;51.474;5.696;2023-09-12T01:52:16;82.70;;;30.90;;
46731;SDS011;32477;51.474;5.696;2023-09-12T01:54:42;74.38;;;29.15;;
46731;SDS011;32477;51.474;5.696;2023-09-12T01:57:09;67.88;;;28.65;;
46731;SDS011;32477;51.474;5.696;2023-09-12T01:59:35;86.68;;;33.03;;
46731;SDS011;32477;51.474;5.696;2023-09-12T02:02:01;76.47;;;31.73;;
46731;SDS011;32477;51.474;5.696;2023-09-12T02:04:27;89.85;;;32.33;;
46731;SDS011;32477;51.474;5.696;2023-09-12T02:06:52;79.95;;;29.70;;
46731;SDS011;32477;51.474;5.696;2023-09-12T02:09:18;71.63;;;30.83;;
46731;SDS011;32477;51.474;5.696;2023-09-12T02:11:43;68.72;;;27.58;;
46731;SDS011;32477;51.474;5.696;2023-09-12T02:14:09;70.45;;;27.70;;
46731;SDS011;32477;51.474;5.696;2023-09-12T02:16:36;71.95;;;28.83;;
46731;SDS011;32477;51.474;5.696;2023-09-12T02:19:05;69.13;;;30.45;;
46731;SDS011;32477;51.474;5.696;2023-09-12T02:21:32;71.35;;;28.63;;
46731;SDS011;32477;51.474;5.696;2023-09-12T02:23:57;88.03;;;32.70;;
46731;SDS011;32477;51.474;5.696;2023-09-12T02:26:23;89.10;;;31.08;;
46731;SDS011;32477;51.474;5.696;2023-09-12T02:28:48;85.55;;;31.33;;
46731;SDS011;32477;51.474;5.696;2023-09-12T02:31:14;89.53;;;33.72;;
46731;SDS011;32477;51.474;5.696;2023-09-12T02:33:40;95.22;;;34.08;;
46731;SDS011;32477;51.474;5.696;2023-09-12T02:36:07;101.60;;;34.78;;
46731;SDS011;32477;51.474;5.696;2023-09-12T02:38:32;103.15;;;33.85;;
46731;SDS011;32477;51.474;5.696;2023-09-12T02:40:58;112.60;;;35.03;;
46731;SDS011;32477;51.474;5.696;2023-09-12T02:43:24;98.05;;;34.38;;
46731;SDS011;32477;51.474;5.696;2023-09-12T02:45:49;107.97;;;36.03;;
46731;SDS011;32477;51.474;5.696;2023-09-12T02:48:15;111.43;;;35.65;;
46731;SDS011;32477;51.474;5.696;2023-09-12T02:50:40;109.88;;;35.53;;
46731;SDS011;32477;51.474;5.696;2023-09-12T02:53:06;114.85;;;37.50;;
46731;SDS011;32477;51.474;5.696;2023-09-12T02:55:32;112.05;;;33.47;;
46731;SDS011;32477;51.474;5.696;2023-09-12T02:57:58;101.32;;;33.92;;
46731;SDS011;32477;51.474;5.696;2023-09-12T03:00:23;91.88;;;31.70;;
46731;SDS011;32477;51.474;5.696;2023-09-12T03:02:49;100.25;;;31.80;;
46731;SDS011;32477;51.474;5.696;2023-09-12T03:05:15;113.15;;;34.72;;
46731;SDS011;32477;51.474;5.696;2023-09-12T03:07:41;105.43;;;34.13;;
46731;SDS011;32477;51.474;5.696;2023-09-12T03:10:06;113.43;;;35.88;;
46731;SDS011;32477;51.474;5.696;2023-09-12T03:12:32;99.65;;;32.08;;
46731;SDS011;32477;51.474;5.696;2023-09-12T03:14:58;109.13;;;37.80;;
46731;SDS011;32477;51.474;5.696;2023-09-12T03:17:23;133.18;;;37.10;;
46731;SDS011;32477;51.474;5.696;2023-09-12T03:19:49;125.85;;;39.38;;
46731;SDS011;32477;51.474;5.696;2023-09-12T03:22:14;106.90;;;36.53;;
46731;SDS011;32477;51.474;5.696;2023-09-12T03:24:40;111.13;;;34.13;;
46731;SDS011;32477;51.474;5.696;2023-09-12T03:27:06;117.97;;;35.53;;
46731;SDS011;32477;51.474;5.696;2023-09-12T03:29:32;132.10;;;38.60;;
46731;SDS011;32477;51.474;5.696;2023-09-12T03:31:58;118.50;;;35.67;;
46731;SDS011;32477;51.474;5.696;2023-09-12T03:34:24;120.40;;;36.17;;
46731;SDS011;32477;51.474;5.696;2023-09-12T03:36:49;140.68;;;38.35;;
46731;SDS011;32477;51.474;5.696;2023-09-12T03:39:15;140.32;;;40.38;;
46731;SDS011;32477;51.474;5.696;2023-09-12T03:41:40;119.40;;;36.60;;
46731;SDS011;32477;51.474;5.696;2023-09-12T03:44:06;120.28;;;36.42;;
46731;SDS011;32477;51.474;5.696;2023-09-12T03:46:32;124.47;;;37.95;;
46731;SDS011;32477;51.474;5.696;2023-09-12T03:48:57;116.55;;;36.53;;
46731;SDS011;32477;51.474;5.696;2023-09-12T03:51:23;104.32;;;36.70;;
46731;SDS011;32477;51.474;5.696;2023-09-12T03:53:48;108.15;;;33.35;;
46731;SDS011;32477;51.474;5.696;2023-09-12T03:56:15;108.68;;;35.17;;
46731;SDS011;32477;51.474;5.696;2023-09-12T03:58:41;114.43;;;36.95;;
46731;SDS011;32477;51.474;5.696;2023-09-12T04:01:07;127.25;;;34.80;;
46731;SDS011;32477;51.474;5.696;2023-09-12T04:03:32;110.75;;;32.30;;
46731;SDS011;32477;51.474;5.696;2023-09-12T04:05:58;117.22;;;37.00;;
46731;SDS011;32477;51.474;5.696;2023-09-12T04:08:24;104.97;;;35.72;;
46731;SDS011;32477;51.474;5.696;2023-09-12T04:10:49;106.53;;;32.17;;
46731;SDS011;32477;51.474;5.696;2023-09-12T04:13:15;115.63;;;34.55;;
46731;SDS011;32477;51.474;5.696;2023-09-12T04:15:41;100.70;;;33.92;;
46731;SDS011;32477;51.474;5.696;2023-09-12T04:18:06;130.45;;;36.80;;
46731;SDS011;32477;51.474;5.696;2023-09-12T04:20:32;122.47;;;35.45;;
46731;SDS011;32477;51.474;5.696;2023-09-12T04:23:00;107.40;;;36.08;;
46731;SDS011;32477;51.474;5.696;2023-09-12T04:25:27;117.90;;;36.25;;
46731;SDS011;32477;51.474;5.696;2023-09-12T04:27:53;124.68;;;35.53;;
46731;SDS011;32477;51.474;5.696;2023-09-12T04:30:18;121.45;;;36.13;;
46731;SDS011;32477;51.474;5.696;2023-09-12T04:32:44;111.45;;;35.40;;
46731;SDS011;32477;51.474;5.696;2023-09-12T04:35:10;105.50;;;35.50;;
46731;SDS011;32477;51.474;5.696;2023-09-12T04:37:36;136.95;;;38.58;;
46731;SDS011;32477;51.474;5.696;2023-09-12T04:40:02;133.85;;;37.58;;
46731;SDS011;32477;51.474;5.696;2023-09-12T04:42:30;128.25;;;39.33;;
46731;SDS011;32477;51.474;5.696;2023-09-12T04:44:56;129.50;;;40.10;;
46731;SDS011;32477;51.474;5.696;2023-09-12T04:47:21;129.73;;;40.03;;
46731;SDS011;32477;51.474;5.696;2023-09-12T04:49:47;130.50;;;40.53;;
46731;SDS011;32477;51.474;5.696;2023-09-12T04:52:12;127.35;;;40.42;;
46731;SDS011;32477;51.474;5.696;2023-09-12T04:54:38;143.02;;;42.63;;
46731;SDS011;32477;51.474;5.696;2023-09-12T04:57:04;148.80;;;42.35;;
46731;SDS011;32477;51.474;5.696;2023-09-12T04:59:29;126.47;;;41.38;;
46731;SDS011;32477;51.474;5.696;2023-09-12T05:01:55;137.63;;;41.25;;
46731;SDS011;32477;51.474;5.696;2023-09-12T05:04:20;126.75;;;40.97;;
46731;SDS011;32477;51.474;5.696;2023-09-12T05:06:46;136.52;;;40.60;;
46731;SDS011;32477;51.474;5.696;2023-09-12T05:09:12;135.77;;;41.30;;
46731;SDS011;32477;51.474;5.696;2023-09-12T05:11:38;120.25;;;39.65;;
46731;SDS011;32477;51.474;5.696;2023-09-12T05:14:03;135.05;;;40.72;;
46731;SDS011;32477;51.474;5.696;2023-09-12T05:16:29;139.65;;;40.25;;
46731;SDS011;32477;51.474;5.696;2023-09-12T05:18:55;129.90;;;39.75;;
46731;SDS011;32477;51.474;5.696;2023-09-12T05:21:21;148.90;;;41.35;;
46731;SDS011;32477;51.474;5.696;2023-09-12T05:23:46;134.27;;;41.67;;
46731;SDS011;32477;51.474;5.696;2023-09-12T05:26:12;144.70;;;40.70;;
46731;SDS011;32477;51.474;5.696;2023-09-12T05:28:38;151.20;;;40.95;;
46731;SDS011;32477;51.474;5.696;2023-09-12T05:31:03;141.35;;;42.85;;
46731;SDS011;32477;51.474;5.696;2023-09-12T05:33:29;135.52;;;42.42;;
46731;SDS011;32477;51.474;5.696;2023-09-12T05:35:54;135.45;;;41.42;;
46731;SDS011;32477;51.474;5.696;2023-09-12T05:38:20;115.95;;;39.22;;
46731;SDS011;32477;51.474;5.696;2023-09-12T05:40:46;136.75;;;41.95;;
46731;SDS011;32477;51.474;5.696;2023-09-12T05:43:11;135.18;;;41.30;;
46731;SDS011;32477;51.474;5.696;2023-09-12T05:45:37;135.70;;;42.47;;
46731;SDS011;32477;51.474;5.696;2023-09-12T05:48:03;138.77;;;38.83;;
46731;SDS011;32477;51.474;5.696;2023-09-12T05:50:29;138.35;;;41.13;;
46731;SDS011;32477;51.474;5.696;2023-09-12T05:52:55;140.55;;;43.30;;
46731;SDS011;32477;51.474;5.696;2023-09-12T05:55:20;140.40;;;43.22;;
46731;SDS011;32477;51.474;5.696;2023-09-12T05:57:46;143.25;;;42.92;;
46731;SDS011;32477;51.474;5.696;2023-09-12T06:00:17;146.20;;;44.65;;
46731;SDS011;32477;51.474;5.696;2023-09-12T06:02:43;138.30;;;44.75;;
46731;SDS011;32477;51.474;5.696;2023-09-12T06:05:10;154.65;;;41.50;;
46731;SDS011;32477;51.474;5.696;2023-09-12T06:07:35;146.63;;;43.58;;
46731;SDS011;32477;51.474;5.696;2023-09-12T06:10:03;139.82;;;42.65;;
46731;SDS011;32477;51.474;5.696;2023-09-12T06:12:28;149.05;;;43.83;;
46731;SDS011;32477;51.474;5.696;2023-09-12T06:14:54;142.85;;;43.00;;
46731;SDS011;32477;51.474;5.696;2023-09-12T06:17:20;150.65;;;43.35;;
46731;SDS011;32477;51.474;5.696;2023-09-12T06:19:47;134.85;;;41.63;;
46731;SDS011;32477;51.474;5.696;2023-09-12T06:22:14;145.90;;;44.20;;
46731;SDS011;32477;51.474;5.696;2023-09-12T06:24:40;153.73;;;46.13;;
46731;SDS011;32477;51.474;5.696;2023-09-12T06:27:06;158.75;;;47.60;;
46731;SDS011;32477;51.474;5.696;2023-09-12T06:29:31;158.95;;;47.50;;
46731;SDS011;32477;51.474;5.696;2023-09-12T06:31:57;165.38;;;47.90;;
46731;SDS011;32477;51.474;5.696;2023-09-12T06:34:23;169.45;;;47.28;;
46731;SDS011;32477;51.474;5.696;2023-09-12T06:36:48;147.18;;;46.10;;
46731;SDS011;32477;51.474;5.696;2023-09-12T06:39:14;135.57;;;44.35;;
46731;SDS011;32477;51.474;5.696;2023-09-12T06:41:40;143.43;;;42.25;;
46731;SDS011;32477;51.474;5.696;2023-09-12T06:44:05;142.48;;;45.28;;
46731;SDS011;32477;51.474;5.696;2023-09-12T06:46:32;142.25;;;45.75;;
46731;SDS011;32477;51.474;5.696;2023-09-12T06:49:00;134.82;;;43.78;;
46731;SDS011;32477;51.474;5.696;2023-09-12T06:51:27;143.77;;;45.90;;
46731;SDS011;32477;51.474;5.696;2023-09-12T06:53:52;148.27;;;46.58;;
46731;SDS011;32477;51.474;5.696;2023-09-12T06:56:18;141.45;;;45.40;;
46731;SDS011;32477;51.474;5.696;2023-09-12T06:58:43;137.05;;;43.90;;
46731;SDS011;32477;51.474;5.696;2023-09-12T07:01:09;144.60;;;47.25;;
46731;SDS011;32477;51.474;5.696;2023-09-12T07:03:35;144.43;;;48.70;;
46731;SDS011;32477;51.474;5.696;2023-09-12T07:06:02;149.70;;;49.47;;
46731;SDS011;32477;51.474;5.696;2023-09-12T07:08:29;144.05;;;47.97;;
46731;SDS011;32477;51.474;5.696;2023-09-12T07:10:55;146.10;;;48.38;;
46731;SDS011;32477;51.474;5.696;2023-09-12T07:13:22;135.15;;;47.47;;
46731;SDS011;32477;51.474;5.696;2023-09-12T07:15:52;124.05;;;45.70;;
46731;SDS011;32477;51.474;5.696;2023-09-12T07:18:18;128.00;;;48.00;;
46731;SDS011;32477;51.474;5.696;2023-09-12T07:20:45;114.68;;;45.28;;
46731;SDS011;32477;51.474;5.696;2023-09-12T07:23:11;115.20;;;44.53;;
46731;SDS011;32477;51.474;5.696;2023-09-12T07:25:39;101.10;;;41.97;;
46731;SDS011;32477;51.474;5.696;2023-09-12T07:28:06;77.95;;;37.78;;
46731;SDS011;32477;51.474;5.696;2023-09-12T07:30:32;77.03;;;38.17;;
46731;SDS011;32477;51.474;5.696;2023-09-12T07:32:58;69.70;;;34.85;;
46731;SDS011;32477;51.474;5.696;2023-09-12T07:35:24;62.83;;;34.13;;
46731;SDS011;32477;51.474;5.696;2023-09-12T07:37:49;66.90;;;38.65;;
46731;SDS011;32477;51.474;5.696;2023-09-12T07:40:15;54.22;;;29.63;;
46731;SDS011;32477;51.474;5.696;2023-09-12T07:42:41;42.03;;;26.05;;
46731;SDS011;32477;51.474;5.696;2023-09-12T07:45:07;42.47;;;23.77;;
46731;SDS011;32477;51.474;5.696;2023-09-12T07:47:33;30.75;;;20.25;;
46731;SDS011;32477;51.474;5.696;2023-09-12T07:49:58;30.25;;;19.33;;
46731;SDS011;32477;51.474;5.696;2023-09-12T07:52:25;25.55;;;18.63;;
46731;SDS011;32477;51.474;5.696;2023-09-12T07:54:51;26.15;;;18.23;;
46731;SDS011;32477;51.474;5.696;2023-09-12T07:57:22;26.67;;;19.85;;
46731;SDS011;32477;51.474;5.696;2023-09-12T07:59:48;29.55;;;18.65;;
46731;SDS011;32477;51.474;5.696;2023-09-12T08:02:14;27.23;;;18.23;;
46731;SDS011;32477;51.474;5.696;2023-09-12T08:04:40;30.33;;;19.23;;
46731;SDS011;32477;51.474;5.696;2023-09-12T08:07:06;29.80;;;17.67;;
46731;SDS011;32477;51.474;5.696;2023-09-12T08:12:33;26.60;;;19.48;;
46731;SDS011;32477;51.474;5.696;2023-09-12T08:15:00;28.20;;;18.85;;
46731;SDS011;32477;51.474;5.696;2023-09-12T08:17:25;27.88;;;19.52;;
46731;SDS011;32477;51.474;5.696;2023-09-12T08:19:51;19.20;;;16.27;;
46731;SDS011;32477;51.474;5.696;2023-09-12T08:22:17;26.23;;;16.95;;
46731;SDS011;32477;51.474;5.696;2023-09-12T08:24:43;26.75;;;18.27;;
46731;SDS011;32477;51.474;5.696;2023-09-12T08:27:09;26.67;;;18.73;;
46731;SDS011;32477;51.474;5.696;2023-09-12T08:29:34;28.35;;;18.75;;
46731;SDS011;32477;51.474;5.696;2023-09-12T08:32:00;27.70;;;18.23;;
46731;SDS011;32477;51.474;5.696;2023-09-12T08:34:26;27.20;;;18.63;;
46731;SDS011;32477;51.474;5.696;2023-09-12T08:36:52;25.83;;;18.83;;
46731;SDS011;32477;51.474;5.696;2023-09-12T08:39:22;21.45;;;16.65;;
46731;SDS011;32477;51.474;5.696;2023-09-12T08:41:50;27.02;;;20.00;;
46731;SDS011;32477;51.474;5.696;2023-09-12T08:44:16;25.05;;;16.98;;
46731;SDS011;32477;51.474;5.696;2023-09-12T08:46:42;28.92;;;17.48;;
46731;SDS011;32477;51.474;5.696;2023-09-12T08:49:09;24.63;;;18.17;;
46731;SDS011;32477;51.474;5.696;2023-09-12T08:51:36;25.65;;;16.90;;
46731;SDS011;32477;51.474;5.696;2023-09-12T08:54:02;24.98;;;17.85;;
46731;SDS011;32477;51.474;5.696;2023-09-12T08:56:29;22.98;;;16.38;;
46731;SDS011;32477;51.474;5.696;2023-09-12T08:58:55;22.05;;;16.52;;
46731;SDS011;32477;51.474;5.696;2023-09-12T09:01:23;20.55;;;14.88;;
46731;SDS011;32477;51.474;5.696;2023-09-12T09:03:52;22.10;;;16.90;;
46731;SDS011;32477;51.474;5.696;2023-09-12T09:06:18;24.33;;;16.40;;
46731;SDS011;32477;51.474;5.696;2023-09-12T09:08:46;21.65;;;15.18;;
46731;SDS011;32477;51.474;5.696;2023-09-12T09:11:13;24.35;;;15.48;;
46731;SDS011;32477;51.474;5.696;2023-09-12T09:13:38;20.40;;;14.38;;
46731;SDS011;32477;51.474;5.696;2023-09-12T09:18:49;21.10;;;16.23;;
46731;SDS011;32477;51.474;5.696;2023-09-12T09:21:18;20.48;;;14.75;;
46731;SDS011;32477;51.474;5.696;2023-09-12T09:23:46;18.80;;;13.10;;
46731;SDS011;32477;51.474;5.696;2023-09-12T09:26:12;18.05;;;11.55;;
46731;SDS011;32477;51.474;5.696;2023-09-12T09:28:38;12.00;;;9.27;;
46731;SDS011;32477;51.474;5.696;2023-09-12T09:31:04;23.25;;;12.50;;
46731;SDS011;32477;51.474;5.696;2023-09-12T09:33:35;16.90;;;12.02;;
46731;SDS011;32477;51.474;5.696;2023-09-12T09:36:02;13.88;;;10.40;;
46731;SDS011;32477;51.474;5.696;2023-09-12T09:38:29;17.70;;;11.85;;
46731;SDS011;32477;51.474;5.696;2023-09-12T09:40:55;16.95;;;11.90;;
46731;SDS011;32477;51.474;5.696;2023-09-12T09:43:21;17.42;;;12.55;;
46731;SDS011;32477;51.474;5.696;2023-09-12T09:45:47;15.40;;;10.98;;
46731;SDS011;32477;51.474;5.696;2023-09-12T09:48:20;15.13;;;11.88;;
46731;SDS011;32477;51.474;5.696;2023-09-12T09:50:46;23.30;;;14.18;;
46731;SDS011;32477;51.474;5.696;2023-09-12T09:53:12;18.30;;;13.77;;
46731;SDS011;32477;51.474;5.696;2023-09-12T09:55:38;20.67;;;13.90;;
46731;SDS011;32477;51.474;5.696;2023-09-12T09:58:06;22.50;;;13.85;;
46731;SDS011;32477;51.474;5.696;2023-09-12T10:00:36;21.77;;;14.68;;
46731;SDS011;32477;51.474;5.696;2023-09-12T10:03:04;17.88;;;11.93;;
46731;SDS011;32477;51.474;5.696;2023-09-12T10:05:34;26.05;;;14.73;;
46731;SDS011;32477;51.474;5.696;2023-09-12T10:08:03;20.02;;;13.90;;
46731;SDS011;32477;51.474;5.696;2023-09-12T10:10:34;20.70;;;13.95;;
46731;SDS011;32477;51.474;5.696;2023-09-12T10:13:03;20.05;;;13.50;;
46731;SDS011;32477;51.474;5.696;2023-09-12T10:15:30;23.42;;;15.43;;
46731;SDS011;32477;51.474;5.696;2023-09-12T10:17:59;23.92;;;16.13;;
46731;SDS011;32477;51.474;5.696;2023-09-12T10:20:38;21.55;;;14.75;;
46731;SDS011;32477;51.474;5.696;2023-09-12T10:23:14;19.13;;;14.30;;
46731;SDS011;32477;51.474;5.696;2023-09-12T10:25:45;18.17;;;14.75;;
46731;SDS011;32477;51.474;5.696;2023-09-12T10:28:13;26.27;;;15.55;;
46731;SDS011;32477;51.474;5.696;2023-09-12T10:30:39;20.70;;;15.27;;
46731;SDS011;32477;51.474;5.696;2023-09-12T10:33:06;29.17;;;15.65;;
46731;SDS011;32477;51.474;5.696;2023-09-12T10:35:33;18.70;;;14.43;;
46731;SDS011;32477;51.474;5.696;2023-09-12T10:38:00;22.00;;;14.65;;
46731;SDS011;32477;51.474;5.696;2023-09-12T10:40:31;19.55;;;13.95;;
46731;SDS011;32477;51.474;5.696;2023-09-12T10:42:58;16.55;;;12.32;;
46731;SDS011;32477;51.474;5.696;2023-09-12T10:45:25;18.65;;;12.35;;
46731;SDS011;32477;51.474;5.696;2023-09-12T10:47:52;21.00;;;13.98;;
46731;SDS011;32477;51.474;5.696;2023-09-12T10:50:19;21.52;;;14.75;;
46731;SDS011;32477;51.474;5.696;2023-09-12T10:52:45;20.52;;;14.20;;
46731;SDS011;32477;51.474;5.696;2023-09-12T10:55:15;18.73;;;13.40;;
46731;SDS011;32477;51.474;5.696;2023-09-12T10:58:00;18.70;;;13.13;;
46731;SDS011;32477;51.474;5.696;2023-09-12T11:00:27;20.45;;;13.57;;
46731;SDS011;32477;51.474;5.696;2023-09-12T11:02:53;22.52;;;12.38;;
46731;SDS011;32477;51.474;5.696;2023-09-12T11:07:57;18.98;;;12.32;;
46731;SDS011;32477;51.474;5.696;2023-09-12T11:10:23;15.82;;;12.52;;
46731;SDS011;32477;51.474;5.696;2023-09-12T11:12:51;19.30;;;11.02;;
46731;SDS011;32477;51.474;5.696;2023-09-12T11:15:18;16.73;;;11.50;;
46731;SDS011;32477;51.474;5.696;2023-09-12T11:20:59;15.90;;;10.63;;
46731;SDS011;32477;51.474;5.696;2023-09-12T11:23:28;15.45;;;12.00;;
46731;SDS011;32477;51.474;5.696;2023-09-12T11:26:07;16.38;;;11.70;;
46731;SDS011;32477;51.474;5.696;2023-09-12T11:28:33;18.88;;;10.98;;
46731;SDS011;32477;51.474;5.696;2023-09-12T11:30:59;20.42;;;11.88;;
46731;SDS011;32477;51.474;5.696;2023-09-12T11:33:25;16.27;;;9.68;;
46731;SDS011;32477;51.474;5.696;2023-09-12T11:35:54;15.70;;;10.85;;
46731;SDS011;32477;51.474;5.696;2023-09-12T11:38:29;15.05;;;10.23;;
46731;SDS011;32477;51.474;5.696;2023-09-12T11:40:56;17.45;;;9.77;;
46731;SDS011;32477;51.474;5.696;2023-09-12T11:43:23;14.63;;;9.55;;
46731;SDS011;32477;51.474;5.696;2023-09-12T11:45:51;16.75;;;10.35;;
46731;SDS011;32477;51.474;5.696;2023-09-12T11:48:18;13.98;;;8.40;;
46731;SDS011;32477;51.474;5.696;2023-09-12T11:50:49;11.10;;;8.45;;
46731;SDS011;32477;51.474;5.696;2023-09-12T11:53:18;15.90;;;8.82;;
46731;SDS011;32477;51.474;5.696;2023-09-12T11:55:47;13.25;;;9.32;;
46731;SDS011;32477;51.474;5.696;2023-09-12T11:58:16;13.23;;;9.35;;
46731;SDS011;32477;51.474;5.696;2023-09-12T12:00:46;17.65;;;9.75;;
46731;SDS011;32477;51.474;5.696;2023-09-12T12:03:14;11.80;;;8.73;;
46731;SDS011;32477;51.474;5.696;2023-09-12T12:05:41;12.90;;;9.05;;
46731;SDS011;32477;51.474;5.696;2023-09-12T12:08:10;12.65;;;8.52;;
46731;SDS011;32477;51.474;5.696;2023-09-12T12:10:36;12.88;;;9.20;;
46731;SDS011;32477;51.474;5.696;2023-09-12T12:13:04;13.00;;;8.55;;
46731;SDS011;32477;51.474;5.696;2023-09-12T12:15:31;16.48;;;8.23;;
46731;SDS011;32477;51.474;5.696;2023-09-12T12:17:57;14.00;;;8.07;;
46731;SDS011;32477;51.474;5.696;2023-09-12T12:20:23;11.27;;;8.15;;
46731;SDS011;32477;51.474;5.696;2023-09-12T12:22:49;17.42;;;9.18;;
46731;SDS011;32477;51.474;5.696;2023-09-12T12:25:17;17.00;;;9.45;;
46731;SDS011;32477;51.474;5.696;2023-09-12T12:27:43;14.18;;;9.05;;
46731;SDS011;32477;51.474;5.696;2023-09-12T12:30:10;14.25;;;10.32;;
46731;SDS011;32477;51.474;5.696;2023-09-12T12:32:43;17.35;;;9.45;;
46731;SDS011;32477;51.474;5.696;2023-09-12T12:35:17;23.85;;;10.98;;
46731;SDS011;32477;51.474;5.696;2023-09-12T12:37:50;14.85;;;10.35;;
46731;SDS011;32477;51.474;5.696;2023-09-12T12:40:19;31.45;;;10.00;;
46731;SDS011;32477;51.474;5.696;2023-09-12T12:42:45;14.88;;;9.68;;
46731;SDS011;32477;51.474;5.696;2023-09-12T12:45:12;14.57;;;9.88;;
46731;SDS011;32477;51.474;5.696;2023-09-12T12:47:38;15.02;;;9.50;;
46731;SDS011;32477;51.474;5.696;2023-09-12T12:50:11;15.02;;;9.50;;
46731;SDS011;32477;51.474;5.696;2023-09-12T12:52:41;19.45;;;10.63;;
46731;SDS011;32477;51.474;5.696;2023-09-12T12:55:08;19.83;;;11.70;;
46731;SDS011;32477;51.474;5.696;2023-09-12T12:57:39;16.67;;;10.27;;
46731;SDS011;32477;51.474;5.696;2023-09-12T13:00:09;12.77;;;10.65;;
46731;SDS011;32477;51.474;5.696;2023-09-12T13:02:40;18.40;;;10.27;;
46731;SDS011;32477;51.474;5.696;2023-09-12T13:05:18;24.52;;;10.93;;
46731;SDS011;32477;51.474;5.696;2023-09-12T13:07:51;21.42;;;10.57;;
46731;SDS011;32477;51.474;5.696;2023-09-12T13:10:17;18.33;;;11.38;;
46731;SDS011;32477;51.474;5.696;2023-09-12T13:12:43;16.33;;;12.80;;
46731;SDS011;32477;51.474;5.696;2023-09-12T13:15:12;18.08;;;11.43;;
46731;SDS011;32477;51.474;5.696;2023-09-12T13:17:38;15.95;;;10.57;;
46731;SDS011;32477;51.474;5.696;2023-09-12T13:20:05;13.90;;;10.10;;
46731;SDS011;32477;51.474;5.696;2023-09-12T13:22:33;12.93;;;9.27;;
46731;SDS011;32477;51.474;5.696;2023-09-12T13:24:59;14.38;;;9.32;;
46731;SDS011;32477;51.474;5.696;2023-09-12T13:27:24;9.60;;;7.22;;
46731;SDS011;32477;51.474;5.696;2023-09-12T13:29:50;11.50;;;8.40;;
46731;SDS011;32477;51.474;5.696;2023-09-12T13:32:15;11.98;;;8.25;;
46731;SDS011;32477;51.474;5.696;2023-09-12T13:34:43;13.93;;;9.05;;
46731;SDS011;32477;51.474;5.696;2023-09-12T13:37:09;13.18;;;8.13;;
46731;SDS011;32477;51.474;5.696;2023-09-12T13:39:35;14.93;;;9.35;;
46731;SDS011;32477;51.474;5.696;2023-09-12T13:42:02;13.00;;;9.73;;
46731;SDS011;32477;51.474;5.696;2023-09-12T13:44:30;12.10;;;9.93;;
46731;SDS011;32477;51.474;5.696;2023-09-12T13:46:56;12.65;;;9.73;;
46731;SDS011;32477;51.474;5.696;2023-09-12T13:49:21;21.00;;;10.32;;
46731;SDS011;32477;51.474;5.696;2023-09-12T13:51:47;17.20;;;10.32;;
46731;SDS011;32477;51.474;5.696;2023-09-12T13:54:12;18.00;;;11.02;;
46731;SDS011;32477;51.474;5.696;2023-09-12T13:56:43;19.38;;;11.02;;
46731;SDS011;32477;51.474;5.696;2023-09-12T13:59:09;19.25;;;10.98;;
46731;SDS011;32477;51.474;5.696;2023-09-12T14:01:34;17.23;;;11.15;;
46731;SDS011;32477;51.474;5.696;2023-09-12T14:04:00;17.25;;;10.57;;
46731;SDS011;32477;51.474;5.696;2023-09-12T14:06:27;19.98;;;10.48;;
46731;SDS011;32477;51.474;5.696;2023-09-12T14:08:53;17.05;;;10.50;;
46731;SDS011;32477;51.474;5.696;2023-09-12T14:11:18;14.63;;;10.13;;
46731;SDS011;32477;51.474;5.696;2023-09-12T14:13:44;13.45;;;9.65;;
46731;SDS011;32477;51.474;5.696;2023-09-12T14:16:10;10.93;;;9.13;;
46731;SDS011;32477;51.474;5.696;2023-09-12T14:18:35;17.42;;;9.60;;
46731;SDS011;32477;51.474;5.696;2023-09-12T14:21:02;18.20;;;10.02;;
46731;SDS011;32477;51.474;5.696;2023-09-12T14:23:28;20.63;;;9.60;;
46731;SDS011;32477;51.474;5.696;2023-09-12T14:25:53;16.48;;;9.82;;
46731;SDS011;32477;51.474;5.696;2023-09-12T14:28:19;27.20;;;11.23;;
46731;SDS011;32477;51.474;5.696;2023-09-12T14:30:45;16.70;;;9.45;;
46731;SDS011;32477;51.474;5.696;2023-09-12T14:33:11;11.13;;;9.32;;